Flugwetter

[source: ADDS]
METAR
LOWL 181550Z VRB01KT CAVOK 11/M00 Q1019 NOSIG =
TAF LOWL 181115Z 1812/1912 VRB02KT CAVOK TX10/1814Z TNM02/1906Z TEMPO 1903/1910 4000 BR SCT002
TAF
TAF LOWL 181115Z 1812/1912 VRB02KT CAVOK TX10/1814Z TNM02/1906Z TEMPO 1903/1910 4000 BR SCT002 =